createdAt,value
2022-08-27T00:04:56.907Z,0
2022-08-27T00:10:51.729Z,3.6
2022-08-27T00:16:22.026Z,7.2
2022-08-27T00:21:40.334Z,7.2
2022-08-27T00:27:25.320Z,5.9
2022-08-27T00:32:55.729Z,8.4
2022-08-27T00:38:30.077Z,8.4
2022-08-27T00:44:17.331Z,7.2
2022-08-27T00:49:37.072Z,7.2
2022-08-27T00:55:38.921Z,7.2
2022-08-27T01:01:11.719Z,5.9
2022-08-27T01:06:21.699Z,3.6
2022-08-27T01:12:00.823Z,0
2022-08-27T01:17:49.166Z,0
2022-08-27T01:23:15.429Z,3.6
2022-08-27T01:29:04.854Z,2.4
2022-08-27T01:34:43.508Z,4.8
2022-08-27T01:40:04.982Z,5.9
2022-08-27T01:45:41.794Z,2.4
2022-08-27T01:51:07.056Z,0
2022-08-27T01:56:52.532Z,0
2022-08-27T02:02:19.236Z,0
2022-08-27T02:07:46.483Z,0
2022-08-27T02:13:50.685Z,0
2022-08-27T02:19:20.502Z,0
2022-08-27T02:24:49.491Z,0
2022-08-27T02:30:06.638Z,5.9
2022-08-27T02:35:51.080Z,2.4
2022-08-27T02:41:44.484Z,2.4
2022-08-27T02:47:07.276Z,0
2022-08-27T02:52:37.820Z,0
2022-08-27T02:58:14.974Z,0
2022-08-27T03:04:04.115Z,0
2022-08-27T03:09:31.083Z,4.8
2022-08-27T03:15:07.413Z,5.9
2022-08-27T03:20:47.956Z,0
2022-08-27T03:26:07.585Z,0
2022-08-27T03:31:53.070Z,0
2022-08-27T03:37:18.989Z,0
2022-08-27T03:42:41.152Z,0
2022-08-27T03:48:37.845Z,0
2022-08-27T03:54:15.878Z,0
2022-08-27T03:59:40.250Z,0
2022-08-27T04:05:21.885Z,0
2022-08-27T04:10:52.032Z,0
2022-08-27T04:16:14.187Z,0
2022-08-27T04:21:47.694Z,0
2022-08-27T04:27:25.935Z,0
2022-08-27T04:33:12.140Z,0
2022-08-27T04:38:33.634Z,0
2022-08-27T04:44:20.974Z,0
2022-08-27T04:49:36.199Z,0
2022-08-27T05:00:58.723Z,0
2022-08-27T05:06:21.808Z,0
2022-08-27T05:12:09.963Z,0
2022-08-27T05:17:52.062Z,0
2022-08-27T05:23:22.452Z,0
2022-08-27T05:28:54.110Z,0
2022-08-27T05:34:27.496Z,0
2022-08-27T05:40:15.654Z,0
2022-08-27T05:45:26.740Z,0
2022-08-27T05:51:11.937Z,0
2022-08-27T05:56:58.136Z,0
2022-08-27T06:02:35.342Z,0
2022-08-27T06:07:44.118Z,0
2022-08-27T06:13:23.061Z,4.8
2022-08-27T06:19:05.918Z,8.4
2022-08-27T06:24:34.467Z,5.9
2022-08-27T06:36:09.726Z,8.4
2022-08-27T06:41:24.076Z,7.2
2022-08-27T06:46:58.735Z,9.6
2022-08-27T06:52:35.429Z,9.6
2022-08-27T06:58:31.127Z,10.7
2022-08-27T07:04:03.517Z,8.4
2022-08-27T07:09:36.259Z,8.4
2022-08-27T07:15:04.853Z,9.6
2022-08-27T07:20:39.597Z,5.9
2022-08-27T07:26:17.423Z,9.6
2022-08-27T07:31:47.689Z,7.2
2022-08-27T07:37:35.306Z,8.4
2022-08-27T07:42:49.527Z,7.2
2022-08-27T07:48:40.309Z,9.6
2022-08-27T07:54:25.642Z,7.2
2022-08-27T07:59:44.125Z,5.9
2022-08-27T08:05:33.217Z,0
2022-08-27T08:10:57.784Z,0
2022-08-27T08:16:45.954Z,4.8
2022-08-27T08:22:11.992Z,8.4
2022-08-27T08:27:47.251Z,4.8
2022-08-27T08:33:25.265Z,0
2022-08-27T08:38:53.419Z,9.6
2022-08-27T08:44:55.511Z,9.6
2022-08-27T08:50:19.798Z,8.4
2022-08-27T08:56:06.297Z,10.7
2022-08-27T09:01:37.052Z,10.7
2022-08-27T09:07:16.647Z,9.6
2022-08-27T09:12:54.968Z,10.7
2022-08-27T09:18:14.094Z,9.6
2022-08-27T09:23:54.265Z,4.8
2022-08-27T09:29:28.519Z,9.6
2022-08-27T09:35:20.535Z,7.2
2022-08-27T09:40:55.192Z,3.6
2022-08-27T09:46:24.342Z,7.2
2022-08-27T09:52:04.655Z,9.6
2022-08-27T09:57:56.731Z,8.4
2022-08-27T10:03:15.365Z,9.6
2022-08-27T10:08:56.377Z,8.4
2022-08-27T10:14:46.052Z,5.9
2022-08-27T10:20:30.325Z,7.2
2022-08-27T10:25:44.056Z,0
2022-08-27T10:31:14.015Z,5.9
2022-08-27T10:37:13.435Z,7.2
2022-08-27T10:42:56.410Z,5.9
2022-08-27T10:48:28.229Z,8.4
2022-08-27T10:53:48.368Z,5.9
2022-08-27T10:59:27.065Z,8.4
2022-08-27T11:05:21.951Z,7.2
2022-08-27T11:11:04.102Z,8.4
2022-08-27T11:16:20.959Z,8.4
2022-08-27T11:22:07.100Z,8.4
2022-08-27T11:27:34.898Z,9.6
2022-08-27T11:33:20.847Z,8.4
2022-08-27T11:38:54.566Z,8.4
2022-08-27T11:44:49.750Z,7.2
2022-08-27T11:50:34.964Z,9.6
2022-08-27T11:56:09.695Z,8.4
2022-08-27T12:01:48.985Z,9.6
2022-08-27T12:07:09.024Z,11.9
2022-08-27T12:12:50.354Z,9.6
2022-08-27T12:18:36.316Z,8.4
2022-08-27T12:24:27.984Z,13.2
2022-08-27T12:30:09.738Z,13.2
2022-08-27T12:35:28.743Z,9.6
2022-08-27T12:41:04.255Z,10.7
2022-08-27T12:47:01.349Z,10.7
2022-08-27T12:52:29.821Z,9.6
2022-08-27T12:58:15.603Z,10.7
2022-08-27T13:03:39.187Z,11.9
2022-08-27T13:09:19.701Z,9.6
2022-08-27T13:15:16.931Z,10.7
2022-08-27T13:20:53.177Z,11.9
2022-08-27T13:26:31.788Z,14.4
2022-08-27T13:32:23.199Z,13.2
2022-08-27T13:37:51.450Z,10.7
2022-08-27T13:43:26.416Z,10.7
2022-08-27T13:49:19.222Z,11.9
2022-08-27T13:54:53.934Z,11.9
2022-08-27T14:00:20.971Z,11.9
2022-08-27T14:06:00.588Z,11.9
2022-08-27T14:11:29.638Z,10.7
2022-08-27T14:17:17.330Z,10.7
2022-08-27T14:22:55.772Z,11.9
2022-08-27T14:28:47.379Z,10.7
2022-08-27T14:34:23.642Z,9.6
2022-08-27T14:40:01.246Z,13.2
2022-08-27T14:45:49.975Z,14.4
2022-08-27T14:51:33.211Z,14.4
2022-08-27T14:56:54.361Z,10.7
2022-08-27T15:02:41.258Z,10.7
2022-08-27T18:09:13.104Z,9.6
2022-08-27T18:37:06.022Z,3.6
2022-08-27T19:05:12.236Z,4.8
2022-08-27T19:10:39.881Z,9.6
2022-08-27T19:16:30.565Z,5.9
2022-08-27T19:21:54.685Z,0
2022-08-27T19:27:20.853Z,0
2022-08-27T19:32:59.126Z,0
2022-08-27T19:38:39.413Z,0
2022-08-27T19:44:19.634Z,0
2022-08-27T19:50:02.487Z,0
2022-08-27T19:55:22.567Z,0
2022-08-27T20:00:58.363Z,0
2022-08-27T20:06:38.424Z,0
2022-08-27T20:12:17.936Z,0
2022-08-27T20:17:51.472Z,0
2022-08-27T20:23:26.024Z,0
2022-08-27T20:29:08.192Z,0
2022-08-27T20:34:43.502Z,0
2022-08-27T20:40:14.262Z,0
2022-08-27T20:57:02.121Z,0
2022-08-27T21:25:07.641Z,3.6
2022-08-27T21:47:34.056Z,0
2022-08-27T22:20:46.588Z,0
2022-08-27T22:26:17.865Z,0
2022-08-27T22:32:01.598Z,0
2022-08-27T22:37:25.811Z,0
2022-08-27T22:43:23.480Z,0
2022-08-27T22:48:34.568Z,2.4
2022-08-27T22:54:21.945Z,0
